< < Back
Terminal Aerodrome Forecast


Current Version              Previous Versions:   1  2  3  4  5  6  7  8  9  

Terminal Aerodrome Forecast

888
FTUS42 KCAE 261005 AAC
TAFCAE
TAF AMD
KCAE 261005Z 2610/2706 10004KT 4SM BR SCT003 OVC012
      TEMPO 2610/2613 OVC003
     FM261500 VRB04KT P6SM SCT025
     FM261800 12005KT P6SM BKN040=

Latest METAR

981
SAUS80 KWBC 261500 RRA
MTRCAE
METAR KCAE 261456Z 13006KT 8SM OVC015 26/21 A3012 RMK AO2 SLP197
T02560211 53007


USA.gov is the U.S. government's official web portal to all federal, state and local government web resources and services.